createdAt,value
2023-02-09T00:02:29.532Z,8.50
2023-02-09T00:07:21.642Z,9.30
2023-02-09T00:12:32.117Z,8.17
2023-02-09T00:17:25.052Z,9.53
2023-02-09T00:22:16.818Z,10.70
2023-02-09T00:27:08.737Z,10.07
2023-02-09T00:32:00.520Z,10.73
2023-02-09T00:36:52.295Z,9.77
2023-02-09T00:42:02.574Z,9.50
2023-02-09T00:46:54.441Z,9.37
2023-02-09T00:51:46.702Z,11.60
2023-02-09T00:56:38.587Z,8.83
2023-02-09T01:01:31.336Z,11.27
2023-02-09T01:06:23.115Z,10.23
2023-02-09T01:11:15.796Z,9.80
2023-02-09T01:16:09.220Z,10.07
2023-02-09T01:21:01.316Z,10.47
2023-02-09T01:26:07.689Z,8.93
2023-02-09T01:30:59.555Z,11.13
2023-02-09T01:35:51.410Z,10.73
2023-02-09T01:40:48.011Z,11.33
2023-02-09T01:45:51.040Z,9.47
2023-02-09T01:50:46.653Z,9.07
2023-02-09T01:55:48.518Z,11.00
2023-02-09T02:00:40.486Z,11.27
2023-02-09T02:05:36.718Z,9.70
2023-02-09T02:10:29.189Z,10.37
2023-02-09T02:15:25.427Z,10.20
2023-02-09T02:20:29.314Z,11.67
2023-02-09T02:25:40.161Z,13.47
2023-02-09T02:30:58.350Z,11.47
2023-02-09T02:36:17.674Z,10.90
2023-02-09T02:42:15.612Z,13.03
2023-02-09T02:47:11.390Z,12.97
2023-02-09T02:52:08.092Z,10.10
2023-02-09T02:57:04.707Z,12.13
2023-02-09T03:02:02.099Z,13.60
2023-02-09T03:06:53.889Z,12.00
2023-02-09T03:11:49.437Z,10.77
2023-02-09T03:22:25.089Z,10.07
2023-02-09T03:27:19.424Z,12.43
2023-02-09T03:32:11.707Z,14.27
2023-02-09T03:37:03.558Z,11.90
2023-02-09T03:41:55.311Z,13.07
2023-02-09T03:46:47.086Z,12.63
2023-02-09T03:51:38.788Z,12.70
2023-02-09T03:56:30.402Z,15.27
2023-02-09T04:01:22.115Z,13.10
2023-02-09T04:06:13.808Z,13.17
2023-02-09T04:11:05.550Z,12.90
2023-02-09T04:15:57.258Z,12.00
2023-02-09T04:20:49.297Z,14.17
2023-02-09T04:25:41.045Z,12.97
2023-02-09T04:30:32.756Z,12.73
2023-02-09T04:35:26.623Z,12.93
2023-02-09T04:40:18.418Z,13.87
2023-02-09T04:45:10.095Z,13.40
2023-02-09T04:50:02.007Z,12.33
2023-02-09T04:54:53.802Z,14.60
2023-02-09T04:59:45.764Z,15.20
2023-02-09T05:04:37.476Z,18.60
2023-02-09T05:09:29.416Z,12.97
2023-02-09T05:14:21.278Z,13.10
2023-02-09T05:19:13.108Z,15.93
2023-02-09T05:24:05.144Z,17.63
2023-02-09T05:28:56.949Z,15.83
2023-02-09T05:33:48.672Z,13.73
2023-02-09T05:38:40.899Z,12.33
2023-02-09T05:43:32.604Z,11.23
2023-02-09T05:48:25.180Z,13.47
2023-02-09T05:53:17.051Z,15.80
2023-02-09T05:58:08.836Z,14.17
2023-02-09T06:03:00.445Z,13.57
2023-02-09T06:07:52.531Z,13.97
2023-02-09T06:12:44.654Z,15.03
2023-02-09T06:17:36.931Z,13.77
2023-02-09T06:22:29.984Z,17.87
2023-02-09T06:27:21.742Z,16.50
2023-02-09T06:32:13.513Z,17.83
2023-02-09T06:37:05.246Z,18.03
2023-02-09T06:41:57.128Z,15.13
2023-02-09T06:46:49.010Z,13.93
2023-02-09T06:51:40.832Z,15.23
2023-02-09T06:56:32.906Z,15.17
2023-02-09T07:01:24.669Z,18.90
2023-02-09T07:06:18.929Z,16.20
2023-02-09T07:11:14.159Z,17.00
2023-02-09T07:16:08.419Z,16.87
2023-02-09T07:21:08.730Z,15.27
2023-02-09T07:26:05.980Z,15.20
2023-02-09T07:31:02.870Z,17.70
2023-02-09T07:35:54.958Z,16.57
2023-02-09T07:40:47.051Z,17.87
2023-02-09T07:45:39.751Z,17.73
2023-02-09T07:50:32.008Z,19.33
2023-02-09T07:55:24.353Z,16.33
2023-02-09T08:00:17.549Z,16.30
2023-02-09T08:05:14.548Z,20.33
2023-02-09T08:10:06.539Z,19.87
2023-02-09T08:14:58.310Z,17.73
2023-02-09T08:20:00.783Z,19.63
2023-02-09T08:24:53.284Z,17.77
2023-02-09T08:29:46.541Z,16.17
2023-02-09T08:34:39.045Z,18.63
2023-02-09T08:39:30.793Z,18.57
2023-02-09T08:44:22.572Z,17.93
2023-02-09T08:49:14.310Z,18.73
2023-02-09T08:54:05.940Z,21.53
2023-02-09T08:58:58.016Z,17.20
2023-02-09T09:03:49.796Z,18.90
2023-02-09T09:08:41.690Z,19.57
2023-02-09T09:13:33.483Z,20.97
2023-02-09T09:18:26.108Z,18.23
2023-02-09T09:23:18.208Z,19.27
2023-02-09T09:28:10.344Z,18.83
2023-02-09T09:33:02.652Z,18.63
2023-02-09T09:37:57.307Z,17.27
2023-02-09T09:42:54.948Z,22.47
2023-02-09T09:47:47.812Z,17.83
2023-02-09T09:52:42.665Z,19.37
2023-02-09T09:57:41.915Z,19.43
2023-02-09T10:02:34.659Z,21.17
2023-02-09T10:07:32.142Z,17.50
2023-02-09T10:12:34.058Z,21.80
2023-02-09T10:17:25.691Z,19.40
2023-02-09T10:22:20.752Z,18.23
2023-02-09T10:27:26.456Z,18.67
2023-02-09T10:32:28.967Z,21.23
2023-02-09T10:37:26.895Z,20.87
2023-02-09T10:42:25.151Z,19.33
2023-02-09T10:47:19.836Z,17.17
2023-02-09T10:52:23.624Z,17.50
2023-02-09T10:57:22.606Z,24.87
2023-02-09T11:02:29.832Z,18.67
2023-02-09T11:07:26.623Z,18.97
2023-02-09T11:12:22.801Z,17.93
2023-02-09T11:17:26.767Z,17.67
2023-02-09T11:22:18.412Z,19.60
2023-02-09T11:27:28.184Z,17.77
2023-02-09T11:32:43.870Z,17.13
2023-02-09T11:37:39.576Z,19.03
2023-02-09T11:42:45.762Z,20.67
2023-02-09T11:47:48.028Z,17.80
2023-02-09T11:52:51.629Z,18.23
2023-02-09T11:57:50.678Z,17.20
2023-02-09T12:02:46.335Z,18.57
2023-02-09T12:07:44.506Z,18.27
2023-02-09T12:13:01.469Z,15.10
2023-02-09T12:17:57.717Z,16.43
2023-02-09T12:22:53.823Z,18.00
2023-02-09T12:28:23.524Z,17.90
2023-02-09T12:33:16.414Z,18.90
2023-02-09T12:38:18.478Z,19.73
2023-02-09T12:43:25.699Z,16.67
2023-02-09T12:48:19.205Z,14.37
2023-02-09T12:53:23.438Z,16.50
2023-02-09T12:58:40.109Z,15.00
2023-02-09T13:03:41.072Z,17.97
2023-02-09T13:08:37.864Z,16.80
2023-02-09T13:13:33.090Z,17.50
2023-02-09T13:18:40.995Z,13.07
2023-02-09T13:23:41.512Z,13.37
2023-02-09T13:28:33.290Z,13.20
2023-02-09T13:33:50.993Z,13.63
2023-02-09T13:38:43.240Z,11.80
2023-02-09T13:43:40.424Z,12.90
2023-02-09T13:48:35.668Z,11.60
2023-02-09T13:53:29.158Z,13.03
2023-02-09T13:58:24.898Z,14.80
2023-02-09T14:03:21.448Z,10.97
2023-02-09T14:08:15.576Z,11.63
2023-02-09T14:13:20.352Z,16.27
2023-02-09T14:18:47.525Z,13.77
2023-02-09T14:23:48.749Z,11.77
2023-02-09T14:28:43.306Z,14.03
2023-02-09T14:33:37.516Z,10.87
2023-02-09T14:38:42.957Z,13.17
2023-02-09T14:43:34.695Z,13.67
2023-02-09T14:48:28.612Z,12.27
2023-02-09T14:53:21.926Z,12.57
2023-02-09T14:58:24.998Z,13.90
2023-02-09T15:03:16.659Z,13.37
2023-02-09T15:08:15.994Z,13.90
2023-02-09T15:13:11.253Z,13.23
2023-02-09T15:18:03.320Z,12.17
2023-02-09T15:22:55.869Z,11.37
2023-02-09T15:27:52.734Z,12.10
2023-02-09T15:32:45.151Z,10.57
2023-02-09T15:37:39.461Z,12.33
2023-02-09T15:42:49.794Z,12.70
2023-02-09T15:47:52.774Z,12.57
2023-02-09T15:52:44.593Z,11.80
2023-02-09T15:57:36.618Z,10.83
2023-02-09T16:02:28.267Z,12.87
2023-02-09T16:07:26.102Z,12.30
2023-02-09T16:12:17.730Z,11.83
2023-02-09T16:17:09.452Z,10.47
2023-02-09T16:22:04.493Z,13.63
2023-02-09T16:26:58.887Z,12.43
2023-02-09T16:31:50.547Z,16.83
2023-02-09T16:36:43.340Z,11.13
2023-02-09T16:41:47.321Z,12.23
2023-02-09T16:46:39.084Z,11.77
2023-02-09T16:51:30.769Z,12.53
2023-02-09T16:56:24.851Z,11.97
2023-02-09T17:01:19.126Z,12.37
2023-02-09T17:06:20.157Z,10.57
2023-02-09T17:11:29.922Z,14.43
2023-02-09T17:16:24.438Z,14.37
2023-02-09T17:21:19.116Z,14.50
2023-02-09T17:26:11.893Z,13.13
2023-02-09T17:31:13.063Z,11.60
2023-02-09T17:41:21.189Z,12.43
2023-02-09T17:46:15.957Z,11.73
2023-02-09T17:51:19.546Z,16.93
2023-02-09T17:56:11.768Z,13.43
2023-02-09T18:01:32.620Z,17.23
2023-02-09T18:06:34.310Z,12.17
2023-02-09T18:11:45.506Z,14.23
2023-02-09T18:16:37.692Z,16.43
2023-02-09T18:21:29.408Z,15.67
2023-02-09T18:26:21.065Z,16.67
2023-02-09T18:31:16.387Z,15.00
2023-02-09T18:36:08.665Z,18.77
2023-02-09T18:41:00.326Z,15.63
2023-02-09T18:45:52.148Z,18.63
2023-02-09T18:50:44.170Z,18.70
2023-02-09T18:55:35.865Z,20.20
2023-02-09T19:00:28.054Z,16.87
2023-02-09T19:05:19.972Z,21.17
2023-02-09T19:10:14.510Z,24.77
2023-02-09T19:15:06.358Z,22.10
2023-02-09T19:19:59.170Z,21.23
2023-02-09T19:24:54.133Z,23.33
2023-02-09T19:29:46.487Z,19.87
2023-02-09T19:34:39.997Z,21.13
2023-02-09T19:39:34.897Z,19.10
2023-02-09T19:44:27.822Z,23.00
2023-02-09T19:49:19.572Z,21.37
2023-02-09T19:54:11.212Z,22.17
2023-02-09T19:59:04.120Z,24.27
2023-02-09T20:03:56.324Z,25.07
2023-02-09T20:08:48.106Z,22.73
2023-02-09T20:13:39.892Z,21.70
2023-02-09T20:18:31.466Z,24.80
2023-02-09T20:23:23.772Z,21.73
2023-02-09T20:28:15.595Z,20.70
2023-02-09T20:33:07.308Z,24.07
2023-02-09T20:37:59.035Z,23.07
2023-02-09T20:43:09.380Z,24.23
2023-02-09T20:48:01.342Z,19.43
2023-02-09T20:52:53.019Z,24.07
2023-02-09T20:57:44.660Z,23.73
2023-02-09T21:02:37.882Z,25.23
2023-02-09T21:07:29.697Z,26.33
2023-02-09T21:12:22.249Z,25.33
2023-02-09T21:17:14.417Z,30.43
2023-02-09T21:22:06.507Z,28.03
2023-02-09T21:27:00.620Z,26.53
2023-02-09T21:31:52.644Z,27.53
2023-02-09T21:36:44.495Z,28.17
2023-02-09T21:41:54.862Z,28.10
2023-02-09T21:46:48.733Z,26.67
2023-02-09T21:51:41.990Z,28.10
2023-02-09T21:56:33.695Z,31.93
2023-02-09T22:01:25.409Z,28.63
2023-02-09T22:06:17.120Z,28.03
2023-02-09T22:11:09.003Z,31.83
2023-02-09T22:16:06.177Z,26.10
2023-02-09T22:20:57.812Z,30.00
2023-02-09T22:25:49.439Z,28.47
2023-02-09T22:30:41.202Z,28.60
2023-02-09T22:35:32.901Z,27.97
2023-02-09T22:40:24.569Z,27.63
2023-02-09T22:45:16.321Z,28.53
2023-02-09T22:50:08.657Z,26.60
2023-02-09T22:55:00.441Z,27.93
2023-02-09T22:59:52.176Z,26.43
2023-02-09T23:04:43.823Z,31.13
2023-02-09T23:09:35.648Z,27.03
2023-02-09T23:14:27.858Z,27.20
2023-02-09T23:19:20.958Z,28.73
2023-02-09T23:24:14.291Z,27.57
2023-02-09T23:29:09.519Z,31.73
2023-02-09T23:34:01.148Z,32.10
2023-02-09T23:38:58.857Z,28.80
2023-02-09T23:43:52.309Z,29.87
2023-02-09T23:48:47.970Z,31.47
2023-02-09T23:53:39.982Z,28.80
2023-02-09T23:58:37.986Z,28.87
